createdAt,value
2019-05-20T00:00:49.699Z,24.45
2019-05-20T00:03:17.881Z,25.73
2019-05-20T00:05:47.001Z,23.53
2019-05-20T00:08:15.367Z,24.63
2019-05-20T00:10:44.137Z,27.10
2019-05-20T00:13:12.983Z,23.77
2019-05-20T00:15:41.202Z,24.50
2019-05-20T00:18:09.368Z,24.18
2019-05-20T00:20:37.482Z,21.53
2019-05-20T00:23:05.657Z,22.90
2019-05-20T00:25:33.766Z,23.27
2019-05-20T00:28:01.920Z,21.50
2019-05-20T00:30:30.142Z,20.67
2019-05-20T00:32:58.254Z,24.10
2019-05-20T00:35:26.386Z,23.95
2019-05-20T00:37:54.544Z,24.43
2019-05-20T00:40:22.682Z,22.97
2019-05-20T00:42:50.991Z,22.40
2019-05-20T00:45:19.211Z,23.93
2019-05-20T00:47:47.337Z,23.43
2019-05-20T00:50:15.555Z,24.67
2019-05-20T00:52:43.700Z,25.03
2019-05-20T00:55:19.144Z,27.30
2019-05-20T00:57:47.999Z,25.50
2019-05-20T01:00:16.187Z,24.60
2019-05-20T01:02:56.376Z,25.80
2019-05-20T01:05:15.040Z,27.50
2019-05-20T01:07:43.909Z,26.87
2019-05-20T01:10:12.101Z,28.67
2019-05-20T01:12:40.321Z,25.53
2019-05-20T01:15:08.559Z,29.13
2019-05-20T01:17:36.811Z,27.60
2019-05-20T01:20:05.109Z,30.87
2019-05-20T01:22:33.248Z,25.23
2019-05-20T01:25:01.389Z,30.97
2019-05-20T01:27:29.540Z,30.77
2019-05-20T01:29:57.702Z,31.90
2019-05-20T01:32:25.824Z,30.85
2019-05-20T01:34:53.951Z,34.93
2019-05-20T01:37:22.125Z,31.83
2019-05-20T01:39:50.248Z,35.03
2019-05-20T01:42:18.460Z,33.55
2019-05-20T01:44:46.663Z,31.30
2019-05-20T01:47:14.810Z,31.87
2019-05-20T01:49:43.103Z,33.60
2019-05-20T01:52:11.248Z,36.07
2019-05-20T01:54:39.373Z,34.23
2019-05-20T01:57:07.573Z,35.63
2019-05-20T01:59:35.781Z,34.45
2019-05-20T02:02:04.111Z,39.30
2019-05-20T02:04:32.235Z,39.40
2019-05-20T02:07:00.366Z,38.27
2019-05-20T02:09:28.501Z,39.33
2019-05-20T02:11:56.693Z,37.33
2019-05-20T02:14:26.599Z,38.17
2019-05-20T02:16:54.732Z,36.68
2019-05-20T02:19:22.875Z,36.27
2019-05-20T02:21:51.011Z,36.87
2019-05-20T02:24:19.236Z,37.20
2019-05-20T02:26:47.714Z,38.73
2019-05-20T02:29:15.920Z,37.17
2019-05-20T02:31:44.080Z,37.77
2019-05-20T02:34:12.215Z,35.52
2019-05-20T02:36:40.362Z,37.33
2019-05-20T02:39:08.559Z,41.85
2019-05-20T02:41:36.735Z,40.30
2019-05-20T02:44:05.593Z,35.33
2019-05-20T02:46:33.821Z,41.20
2019-05-20T02:49:02.051Z,41.00
2019-05-20T02:51:32.686Z,38.60
2019-05-20T02:54:01.495Z,36.77
2019-05-20T02:56:30.274Z,37.03
2019-05-20T02:58:58.544Z,40.27
2019-05-20T03:01:26.866Z,38.95
2019-05-20T03:04:10.546Z,39.90
2019-05-20T03:06:24.980Z,40.03
2019-05-20T03:08:53.173Z,41.55
2019-05-20T03:11:21.421Z,39.37
2019-05-20T03:13:49.618Z,40.57
2019-05-20T03:16:17.842Z,39.07
2019-05-20T03:18:46.040Z,43.50
2019-05-20T03:21:14.327Z,40.77
2019-05-20T03:23:42.824Z,41.07
2019-05-20T03:26:10.954Z,40.10
2019-05-20T03:28:39.062Z,42.43
2019-05-20T03:31:07.280Z,38.25
2019-05-20T03:33:35.578Z,39.17
2019-05-20T03:36:03.763Z,38.80
2019-05-20T03:38:31.898Z,44.00
2019-05-20T03:41:00.043Z,40.47
2019-05-20T03:43:28.251Z,42.20
2019-05-20T03:45:56.367Z,43.67
2019-05-20T03:48:24.575Z,40.67
2019-05-20T03:50:52.709Z,40.70
2019-05-20T03:53:20.898Z,42.30
2019-05-20T03:55:49.016Z,39.07
2019-05-20T03:58:17.889Z,41.67
2019-05-20T04:00:46.924Z,38.60
2019-05-20T04:03:15.625Z,39.53
2019-05-20T04:05:43.944Z,39.65
2019-05-20T04:08:12.289Z,40.13
2019-05-20T04:10:40.488Z,38.08
2019-05-20T04:13:08.647Z,38.10
2019-05-20T04:15:37.580Z,41.65
2019-05-20T04:18:05.886Z,33.40
2019-05-20T04:20:34.088Z,36.17
2019-05-20T04:23:02.306Z,34.90
2019-05-20T04:25:30.514Z,34.73
2019-05-20T04:27:58.637Z,32.00
2019-05-20T04:30:26.812Z,32.33
2019-05-20T04:32:55.001Z,35.68
2019-05-20T04:35:23.717Z,36.03
2019-05-20T04:37:51.933Z,34.67
2019-05-20T04:40:20.123Z,39.47
2019-05-20T04:42:48.235Z,35.23
2019-05-20T04:45:16.450Z,32.07
2019-05-20T04:47:44.690Z,38.70
2019-05-20T04:50:13.266Z,36.85
2019-05-20T04:52:41.458Z,35.63
2019-05-20T04:55:10.213Z,36.77
2019-05-20T04:57:38.381Z,37.63
2019-05-20T05:00:07.788Z,37.37
2019-05-20T05:02:35.920Z,39.27
2019-05-20T05:05:05.451Z,38.33
2019-05-20T05:07:33.722Z,37.33
2019-05-20T05:10:01.924Z,37.43
2019-05-20T05:12:30.248Z,36.00
2019-05-20T05:14:58.451Z,37.77
2019-05-20T05:17:26.703Z,35.90
2019-05-20T05:19:54.893Z,40.00
2019-05-20T05:22:23.034Z,41.23
2019-05-20T05:24:51.224Z,41.37
2019-05-20T05:27:19.426Z,36.77
2019-05-20T05:29:47.587Z,42.10
2019-05-20T05:32:17.352Z,46.67
2019-05-20T05:34:45.535Z,44.80
2019-05-20T05:37:13.667Z,41.90
2019-05-20T05:39:41.879Z,46.40
2019-05-20T05:42:09.997Z,38.00
2019-05-20T05:44:38.403Z,37.13
2019-05-20T05:47:06.577Z,36.90
2019-05-20T05:49:34.721Z,32.67
2019-05-20T05:52:02.907Z,34.50
2019-05-20T05:54:31.111Z,34.33
2019-05-20T05:56:59.305Z,31.73
2019-05-20T05:59:30.185Z,31.80
2019-05-20T06:01:58.304Z,33.50
2019-05-20T06:04:26.427Z,32.47
2019-05-20T06:06:54.583Z,33.47
2019-05-20T06:09:22.714Z,31.17
2019-05-20T06:11:50.913Z,31.80
2019-05-20T06:14:19.783Z,33.33
2019-05-20T06:16:47.919Z,31.27
2019-05-20T06:19:16.111Z,29.57
2019-05-20T06:21:44.241Z,30.40
2019-05-20T06:24:12.366Z,29.27
2019-05-20T06:26:40.488Z,30.83
2019-05-20T06:29:08.667Z,30.80
2019-05-20T06:31:36.856Z,31.23
2019-05-20T06:34:04.970Z,29.70
2019-05-20T06:36:34.731Z,28.40
2019-05-20T06:39:12.513Z,27.80
2019-05-20T06:41:40.987Z,30.20
2019-05-20T06:44:09.226Z,25.97
2019-05-20T06:46:37.537Z,26.07
2019-05-20T06:49:05.807Z,28.25
2019-05-20T06:51:34.041Z,29.63
2019-05-20T06:54:02.330Z,27.77
2019-05-20T06:56:30.443Z,27.07
2019-05-20T06:58:58.582Z,30.17
2019-05-20T07:01:26.863Z,33.90
2019-05-20T07:03:55.011Z,27.17
2019-05-20T07:06:23.143Z,29.07
2019-05-20T07:08:51.322Z,28.20
2019-05-20T07:11:19.455Z,29.27
2019-05-20T07:13:47.618Z,27.33
2019-05-20T07:16:16.678Z,29.70
2019-05-20T07:18:44.862Z,28.87
2019-05-20T07:24:23.336Z,27.23
2019-05-20T07:26:51.591Z,29.17
2019-05-20T07:29:19.781Z,28.33
2019-05-20T07:31:47.931Z,27.33
2019-05-20T07:34:16.130Z,27.77
2019-05-20T07:36:44.359Z,28.02
2019-05-20T07:39:12.574Z,28.17
2019-05-20T07:41:41.843Z,25.87
2019-05-20T07:44:10.208Z,25.47
2019-05-20T07:46:38.442Z,28.47
2019-05-20T07:49:06.873Z,25.30
2019-05-20T07:51:35.140Z,27.80
2019-05-20T07:54:03.448Z,24.10
2019-05-20T07:56:33.326Z,27.17
2019-05-20T07:59:03.273Z,29.15
2019-05-20T08:01:31.599Z,27.53
2019-05-20T08:04:00.525Z,25.93
2019-05-20T08:06:28.717Z,25.37
2019-05-20T08:08:57.009Z,26.30
2019-05-20T08:11:25.274Z,29.00
2019-05-20T08:13:53.409Z,24.73
2019-05-20T08:16:21.643Z,26.63
2019-05-20T08:18:49.934Z,23.55
2019-05-20T08:21:18.534Z,24.87
2019-05-20T08:23:50.153Z,24.30
2019-05-20T08:26:18.140Z,26.10
2019-05-20T08:28:46.348Z,25.13
2019-05-20T08:31:14.472Z,28.63
2019-05-20T08:33:42.674Z,26.50
2019-05-20T08:36:10.881Z,26.47
2019-05-20T08:38:39.162Z,26.40
2019-05-20T08:41:07.351Z,27.10
2019-05-20T08:43:35.487Z,26.23
2019-05-20T08:46:03.694Z,24.90
2019-05-20T08:48:31.825Z,28.03
2019-05-20T08:50:59.983Z,25.25
2019-05-20T08:56:38.477Z,24.27
2019-05-20T08:59:06.748Z,23.67
2019-05-20T09:01:34.875Z,25.20
2019-05-20T09:04:03.068Z,26.02
2019-05-20T09:06:31.318Z,25.40
2019-05-20T09:08:59.582Z,25.37
2019-05-20T09:11:27.723Z,24.33
2019-05-20T09:13:55.862Z,24.63
2019-05-20T09:16:24.038Z,25.67
2019-05-20T09:18:52.247Z,25.67
2019-05-20T09:21:20.390Z,25.73
2019-05-20T09:23:48.584Z,24.27
2019-05-20T09:26:16.885Z,23.73
2019-05-20T09:28:45.132Z,24.00
2019-05-20T09:31:13.501Z,22.87
2019-05-20T09:33:42.037Z,24.55
2019-05-20T09:36:10.176Z,24.40
2019-05-20T09:38:38.533Z,23.05
2019-05-20T09:41:06.795Z,22.87
2019-05-20T09:43:34.928Z,24.10
2019-05-20T09:46:07.711Z,23.53
2019-05-20T09:48:33.073Z,24.17
2019-05-20T09:51:01.610Z,23.93
2019-05-20T09:53:29.955Z,25.10
2019-05-20T09:55:58.104Z,24.60
2019-05-20T09:58:26.375Z,23.23
2019-05-20T10:00:54.601Z,26.17
2019-05-20T10:03:22.715Z,26.47
2019-05-20T10:05:50.955Z,26.10
2019-05-20T10:08:36.251Z,24.13
2019-05-20T10:13:59.658Z,26.50
2019-05-20T10:16:27.795Z,24.00
2019-05-20T10:18:56.021Z,24.73
2019-05-20T10:21:24.238Z,26.00
2019-05-20T10:23:52.379Z,26.50
2019-05-20T10:26:20.512Z,27.47
2019-05-20T10:28:48.655Z,25.53
2019-05-20T10:31:16.784Z,25.77
2019-05-20T10:33:44.925Z,27.17
2019-05-20T10:36:13.131Z,27.57
2019-05-20T10:38:56.757Z,25.83
2019-05-20T10:41:11.136Z,28.30
2019-05-20T10:43:39.286Z,26.20
2019-05-20T10:46:07.468Z,28.67
2019-05-20T10:48:35.638Z,27.48
2019-05-20T10:51:03.829Z,27.93
2019-05-20T10:53:32.002Z,27.67
2019-05-20T10:56:00.582Z,27.97
2019-05-20T10:58:29.359Z,27.70
2019-05-20T11:01:03.227Z,28.50
2019-05-20T11:03:27.540Z,28.17
2019-05-20T11:05:55.733Z,27.80
2019-05-20T11:08:23.928Z,26.53
2019-05-20T11:10:52.978Z,29.18
2019-05-20T11:13:21.247Z,29.53
2019-05-20T11:15:49.470Z,28.13
2019-05-20T11:18:17.662Z,31.30
2019-05-20T11:20:45.830Z,29.37
2019-05-20T11:23:13.951Z,30.45
2019-05-20T11:25:42.101Z,29.63
2019-05-20T11:28:11.918Z,27.95
2019-05-20T11:30:40.106Z,27.70
2019-05-20T11:33:08.782Z,29.18
2019-05-20T11:35:37.016Z,28.80
2019-05-20T11:38:05.216Z,28.37
2019-05-20T11:40:33.471Z,26.47
2019-05-20T11:43:01.811Z,27.53
2019-05-20T11:45:30.082Z,27.83
2019-05-20T11:47:58.277Z,28.30
2019-05-20T11:50:26.487Z,28.90
2019-05-20T11:52:54.725Z,29.67
2019-05-20T11:55:23.057Z,30.50
2019-05-20T11:57:51.254Z,29.57
2019-05-20T12:00:19.663Z,30.03
2019-05-20T12:02:47.814Z,31.37
2019-05-20T12:05:16.079Z,34.37
2019-05-20T12:07:44.207Z,29.23
2019-05-20T12:10:12.598Z,30.53
2019-05-20T12:12:41.483Z,28.50
2019-05-20T12:15:09.906Z,33.03
2019-05-20T12:17:38.112Z,34.00
2019-05-20T12:20:07.963Z,26.65
2019-05-20T12:22:37.128Z,28.23
2019-05-20T12:25:06.337Z,28.30
2019-05-20T12:27:34.533Z,31.77
2019-05-20T12:30:02.749Z,28.93
2019-05-20T12:32:31.146Z,31.45
2019-05-20T12:34:59.511Z,30.43
2019-05-20T12:37:27.708Z,30.50
2019-05-20T12:40:06.503Z,27.83
2019-05-20T12:42:25.868Z,28.73
2019-05-20T12:44:54.090Z,32.07
2019-05-20T12:47:22.330Z,30.50
2019-05-20T12:49:50.618Z,29.63
2019-05-20T12:52:18.887Z,30.37
2019-05-20T12:55:04.229Z,29.30
2019-05-20T12:57:16.931Z,29.07
2019-05-20T12:59:45.218Z,29.77
2019-05-20T13:02:17.171Z,31.33
2019-05-20T13:04:43.296Z,30.60
2019-05-20T13:07:12.095Z,30.70
2019-05-20T13:09:40.332Z,29.40
2019-05-20T13:12:08.503Z,30.97
2019-05-20T13:14:36.728Z,31.10
2019-05-20T13:17:06.902Z,29.77
2019-05-20T13:19:35.194Z,31.67
2019-05-20T13:22:03.780Z,31.60
2019-05-20T13:24:31.991Z,33.33
2019-05-20T13:27:00.141Z,34.35
2019-05-20T13:29:28.285Z,33.67
2019-05-20T13:31:56.424Z,35.10
2019-05-20T13:34:24.984Z,32.03
2019-05-20T13:36:59.619Z,31.40
2019-05-20T13:39:27.821Z,32.57
2019-05-20T13:41:56.202Z,34.50
2019-05-20T13:44:24.497Z,31.80
2019-05-20T13:46:52.680Z,32.93
2019-05-20T13:49:20.831Z,32.40
2019-05-20T13:51:49.091Z,33.93
2019-05-20T13:54:17.340Z,33.80
2019-05-20T13:56:46.023Z,34.57
2019-05-20T13:59:14.791Z,33.28
2019-05-20T14:01:47.980Z,36.13
2019-05-20T14:04:17.603Z,34.47
2019-05-20T14:06:45.837Z,34.93
2019-05-20T14:09:14.212Z,34.70
2019-05-20T14:11:42.419Z,36.30
2019-05-20T14:14:14.080Z,37.70
2019-05-20T14:16:40.457Z,36.00
2019-05-20T14:19:08.763Z,37.43
2019-05-20T14:21:36.966Z,34.00
2019-05-20T14:24:05.119Z,36.20
2019-05-20T14:26:33.369Z,31.57
2019-05-20T14:29:01.639Z,34.43
2019-05-20T14:31:33.073Z,31.80
2019-05-20T14:34:01.345Z,31.17
2019-05-20T14:36:39.484Z,30.70
2019-05-20T14:38:59.860Z,29.67
2019-05-20T14:44:21.408Z,30.23
2019-05-20T14:46:49.653Z,28.37
2019-05-20T14:49:17.865Z,27.45
2019-05-20T14:51:46.065Z,28.57
2019-05-20T14:54:14.281Z,28.98
2019-05-20T14:56:42.449Z,29.80
2019-05-20T14:59:11.352Z,29.07
2019-05-20T15:01:39.572Z,30.13
2019-05-20T15:04:07.823Z,30.87
2019-05-20T15:06:37.602Z,28.40
2019-05-20T15:09:06.105Z,31.07
2019-05-20T15:11:37.999Z,32.17
2019-05-20T15:14:04.238Z,30.13
2019-05-20T15:16:33.178Z,30.45
2019-05-20T15:19:01.324Z,33.40
2019-05-20T15:21:29.953Z,31.77
2019-05-20T15:23:58.153Z,32.63
2019-05-20T15:26:26.285Z,31.80
2019-05-20T15:28:54.426Z,33.93
2019-05-20T15:31:22.562Z,32.90
2019-05-20T15:33:50.675Z,31.68
2019-05-20T15:36:18.891Z,32.70
2019-05-20T15:38:47.102Z,31.63
2019-05-20T15:41:15.293Z,33.37
2019-05-20T15:43:43.486Z,32.07
2019-05-20T15:46:11.651Z,35.88
2019-05-20T15:48:39.891Z,33.57
2019-05-20T15:51:08.198Z,32.93
2019-05-20T15:53:36.442Z,34.33
2019-05-20T15:56:04.630Z,32.80
2019-05-20T15:58:32.795Z,35.70
2019-05-20T16:01:00.903Z,33.70
2019-05-20T16:03:29.100Z,35.10
2019-05-20T16:05:59.803Z,35.67
2019-05-20T16:08:27.240Z,34.57
2019-05-20T16:10:55.445Z,32.90
2019-05-20T16:13:23.722Z,35.87
2019-05-20T16:15:51.874Z,34.83
2019-05-20T16:18:20.030Z,34.37
2019-05-20T16:20:48.225Z,36.80
2019-05-20T16:23:16.451Z,35.50
2019-05-20T16:25:44.691Z,35.70
2019-05-20T16:28:12.902Z,36.17
2019-05-20T16:30:41.094Z,36.23
2019-05-20T16:33:09.285Z,36.60
2019-05-20T16:35:37.745Z,37.83
2019-05-20T16:38:05.968Z,34.73
2019-05-20T16:40:34.103Z,35.47
2019-05-20T16:43:02.324Z,35.03
2019-05-20T16:45:30.468Z,34.60
2019-05-20T16:48:04.738Z,36.17
2019-05-20T16:50:33.032Z,34.47
2019-05-20T16:53:01.295Z,33.27
2019-05-20T16:55:29.458Z,31.97
2019-05-20T16:57:57.735Z,32.50
2019-05-20T17:00:31.952Z,32.47
2019-05-20T17:02:55.907Z,32.17
2019-05-20T17:05:24.062Z,28.93
2019-05-20T17:07:52.265Z,33.40
2019-05-20T17:10:20.544Z,31.40
2019-05-20T17:12:48.748Z,33.63
2019-05-20T17:15:17.421Z,31.70
2019-05-20T17:17:45.563Z,34.07
2019-05-20T17:20:14.051Z,32.28
2019-05-20T17:22:42.182Z,33.50
2019-05-20T17:25:10.889Z,32.93
2019-05-20T17:27:39.184Z,30.57
2019-05-20T17:30:07.746Z,32.37
2019-05-20T17:32:36.008Z,33.57
2019-05-20T17:35:04.444Z,33.37
2019-05-20T17:37:33.338Z,31.95
2019-05-20T17:40:01.610Z,29.27
2019-05-20T17:42:29.969Z,33.20
2019-05-20T17:44:58.186Z,32.17
2019-05-20T17:47:26.489Z,32.80
2019-05-20T17:53:04.339Z,30.50
2019-05-20T17:55:32.584Z,32.30
2019-05-20T17:58:00.779Z,30.77
2019-05-20T18:00:29.127Z,33.17
2019-05-20T18:02:57.335Z,29.67
2019-05-20T18:05:25.461Z,31.87
2019-05-20T18:07:53.706Z,28.87
2019-05-20T18:10:24.151Z,30.62
2019-05-20T18:12:52.505Z,50.10
2019-05-20T18:15:20.701Z,35.75
2019-05-20T18:17:48.890Z,30.10
2019-05-20T18:20:17.115Z,27.65
2019-05-20T18:22:45.365Z,29.20
2019-05-20T18:25:14.678Z,29.93
2019-05-20T18:27:42.881Z,24.47
2019-05-20T18:30:11.565Z,28.63
2019-05-20T18:32:39.846Z,26.43
2019-05-20T18:35:08.145Z,29.30
2019-05-20T18:37:36.338Z,29.20
2019-05-20T18:40:13.947Z,27.53
2019-05-20T18:42:35.442Z,28.27
2019-05-20T18:45:04.791Z,28.03
2019-05-20T18:47:32.939Z,28.40
2019-05-20T18:50:01.168Z,27.60
2019-05-20T18:52:29.372Z,29.83
2019-05-20T18:54:57.614Z,25.17
2019-05-20T18:57:25.850Z,29.77
2019-05-20T18:59:54.043Z,28.17
2019-05-20T19:02:22.170Z,28.50
2019-05-20T19:04:50.366Z,28.73
2019-05-20T19:07:18.748Z,31.65
2019-05-20T19:09:46.955Z,29.50
2019-05-20T19:12:15.166Z,30.10
2019-05-20T19:14:43.391Z,28.30
2019-05-20T19:17:11.629Z,32.30
2019-05-20T19:19:39.887Z,33.43
2019-05-20T19:22:08.218Z,30.73
2019-05-20T19:24:36.398Z,31.37
2019-05-20T19:27:05.734Z,30.67
2019-05-20T19:29:33.963Z,31.40
2019-05-20T19:32:02.525Z,32.03
2019-05-20T19:34:31.046Z,28.07
2019-05-20T19:36:59.235Z,29.77
2019-05-20T19:39:27.352Z,30.48
2019-05-20T19:41:55.575Z,31.63
2019-05-20T19:44:23.738Z,31.70
2019-05-20T19:46:51.886Z,32.60
2019-05-20T19:49:20.028Z,31.47
2019-05-20T19:51:48.237Z,35.23
2019-05-20T19:54:16.426Z,33.67
2019-05-20T19:56:44.627Z,33.58
2019-05-20T19:59:12.775Z,33.10
2019-05-20T20:01:41.059Z,36.43
2019-05-20T20:04:09.373Z,34.50
2019-05-20T20:06:37.655Z,32.13
2019-05-20T20:09:07.704Z,33.90
2019-05-20T20:11:35.868Z,32.23
2019-05-20T20:14:04.169Z,35.20
2019-05-20T20:16:32.372Z,34.03
2019-05-20T20:19:00.505Z,34.53
2019-05-20T20:21:28.747Z,32.20
2019-05-20T20:23:57.129Z,35.40
2019-05-20T20:26:25.419Z,34.03
2019-05-20T20:28:54.493Z,36.67
2019-05-20T20:31:23.830Z,35.07
2019-05-20T20:33:51.989Z,34.30
2019-05-20T20:36:21.502Z,35.57
2019-05-20T20:38:50.025Z,39.43
2019-05-20T20:41:18.216Z,37.60
2019-05-20T20:43:46.349Z,37.67
2019-05-20T20:46:14.498Z,39.33
2019-05-20T20:48:42.758Z,36.77
2019-05-20T20:51:10.919Z,37.83
2019-05-20T20:53:39.045Z,37.58
2019-05-20T20:56:07.287Z,36.63
2019-05-20T20:58:35.510Z,36.23
2019-05-20T21:01:03.641Z,33.60
2019-05-20T21:03:31.854Z,32.50
2019-05-20T21:09:10.475Z,31.93
2019-05-20T21:11:38.685Z,30.57
2019-05-20T21:14:06.902Z,27.13
2019-05-20T21:16:36.328Z,26.50
2019-05-20T21:19:04.543Z,27.13
2019-05-20T21:21:32.715Z,34.70
2019-05-20T21:24:00.860Z,24.55
2019-05-20T21:26:29.018Z,26.57
2019-05-20T21:28:57.201Z,23.90
2019-05-20T21:31:25.336Z,25.93
2019-05-20T21:33:53.543Z,28.07
2019-05-20T21:36:21.728Z,25.62
2019-05-20T21:38:49.980Z,25.13
2019-05-20T21:41:18.232Z,25.57
2019-05-20T21:43:46.429Z,25.70
2019-05-20T21:46:14.567Z,26.73
2019-05-20T21:48:42.759Z,25.50
2019-05-20T21:51:11.632Z,28.07
2019-05-20T21:53:39.762Z,26.57
2019-05-20T21:56:07.895Z,27.37
2019-05-20T21:58:36.119Z,26.63
2019-05-20T22:01:04.371Z,28.23
2019-05-20T22:03:32.612Z,25.02
2019-05-20T22:06:00.828Z,26.60
2019-05-20T22:08:29.745Z,29.20
2019-05-20T22:10:57.869Z,28.93
2019-05-20T22:13:26.100Z,27.83
2019-05-20T22:15:54.322Z,28.53
2019-05-20T22:18:22.467Z,27.37
2019-05-20T22:20:50.610Z,26.50
2019-05-20T22:23:22.837Z,29.70
2019-05-20T22:25:52.146Z,26.93
2019-05-20T22:28:20.413Z,28.47
2019-05-20T22:30:48.589Z,30.53
2019-05-20T22:33:16.786Z,30.53
2019-05-20T22:35:44.937Z,29.37
2019-05-20T22:38:13.131Z,31.48
2019-05-20T22:40:41.276Z,29.17
2019-05-20T22:43:09.405Z,30.70
2019-05-20T22:45:37.535Z,31.63
2019-05-20T22:48:05.667Z,29.90
2019-05-20T22:50:33.796Z,33.10
2019-05-20T22:53:01.923Z,35.30
2019-05-20T22:55:30.060Z,29.52
2019-05-20T22:57:58.241Z,33.27
2019-05-20T23:00:26.458Z,37.07
2019-05-20T23:02:54.712Z,33.70
2019-05-20T23:05:22.915Z,33.53
2019-05-20T23:07:51.125Z,33.50
2019-05-20T23:10:19.347Z,36.27
2019-05-20T23:12:47.461Z,36.77
2019-05-20T23:15:15.699Z,32.97
2019-05-20T23:17:43.854Z,36.33
2019-05-20T23:20:12.247Z,37.47
2019-05-20T23:22:40.424Z,30.15
2019-05-20T23:25:08.728Z,36.70
2019-05-20T23:27:36.851Z,34.50
2019-05-20T23:30:08.214Z,36.07
2019-05-20T23:32:36.403Z,37.73
2019-05-20T23:35:05.701Z,35.00
2019-05-20T23:37:33.866Z,34.97
2019-05-20T23:40:02.128Z,35.23
2019-05-20T23:42:30.336Z,26.97
2019-05-20T23:44:58.478Z,27.93
2019-05-20T23:47:26.635Z,27.37
2019-05-20T23:49:54.775Z,25.67
2019-05-20T23:52:22.922Z,24.92
2019-05-20T23:54:51.039Z,24.40
2019-05-20T23:57:19.210Z,24.37
2019-05-20T23:59:47.357Z,21.87
